sensor_id;sensor_type;location;lat;lon;timestamp;pressure;altitude;pressure_sealevel;temperature;humidity
45275;BME280;31019;43.780;25.948;2023-03-31T00:00:07;101064.81;;;2.34;100.00
45275;BME280;31019;43.780;25.948;2023-03-31T00:02:36;101068.09;;;2.73;100.00
45275;BME280;31019;43.780;25.948;2023-03-31T00:05:06;101064.50;;;3.19;100.00
45275;BME280;31019;43.780;25.948;2023-03-31T00:07:33;101058.41;;;3.19;100.00
45275;BME280;31019;43.780;25.948;2023-03-31T00:10:03;101053.84;;;3.21;100.00
45275;BME280;31019;43.780;25.948;2023-03-31T00:12:30;101048.31;;;3.42;100.00
45275;BME280;31019;43.780;25.948;2023-03-31T00:14:58;101048.66;;;3.11;100.00
45275;BME280;31019;43.780;25.948;2023-03-31T00:17:25;101038.91;;;3.39;100.00
45275;BME280;31019;43.780;25.948;2023-03-31T00:19:52;101032.97;;;3.55;100.00
45275;BME280;31019;43.780;25.948;2023-03-31T00:22:24;101034.56;;;3.48;100.00
45275;BME280;31019;43.780;25.948;2023-03-31T00:24:52;101035.72;;;3.72;100.00
45275;BME280;31019;43.780;25.948;2023-03-31T00:27:18;101030.06;;;3.84;100.00
45275;BME280;31019;43.780;25.948;2023-03-31T00:29:45;101024.41;;;3.53;100.00
45275;BME280;31019;43.780;25.948;2023-03-31T00:32:16;101026.63;;;3.66;100.00
45275;BME280;31019;43.780;25.948;2023-03-31T00:34:44;101020.75;;;3.72;100.00
45275;BME280;31019;43.780;25.948;2023-03-31T00:37:11;101013.59;;;3.56;100.00
45275;BME280;31019;43.780;25.948;2023-03-31T00:39:40;101014.50;;;3.65;100.00
45275;BME280;31019;43.780;25.948;2023-03-31T00:42:09;101006.63;;;3.91;100.00
45275;BME280;31019;43.780;25.948;2023-03-31T00:44:38;101009.66;;;3.78;100.00
45275;BME280;31019;43.780;25.948;2023-03-31T00:47:28;101011.31;;;3.79;100.00
45275;BME280;31019;43.780;25.948;2023-03-31T00:49:55;101009.25;;;3.91;100.00
45275;BME280;31019;43.780;25.948;2023-03-31T00:52:26;101009.63;;;4.04;100.00
45275;BME280;31019;43.780;25.948;2023-03-31T00:55:02;101002.63;;;3.87;100.00
45275;BME280;31019;43.780;25.948;2023-03-31T00:57:32;101008.97;;;3.50;100.00
45275;BME280;31019;43.780;25.948;2023-03-31T01:00:07;101003.63;;;3.86;100.00
45275;BME280;31019;43.780;25.948;2023-03-31T01:02:40;101004.69;;;4.01;100.00
45275;BME280;31019;43.780;25.948;2023-03-31T01:05:16;101000.16;;;4.11;100.00
45275;BME280;31019;43.780;25.948;2023-03-31T01:07:47;100998.44;;;4.02;100.00
45275;BME280;31019;43.780;25.948;2023-03-31T01:10:15;100990.41;;;4.04;100.00
45275;BME280;31019;43.780;25.948;2023-03-31T01:12:44;100996.53;;;3.78;100.00
45275;BME280;31019;43.780;25.948;2023-03-31T01:15:13;100985.94;;;3.44;100.00
45275;BME280;31019;43.780;25.948;2023-03-31T01:17:42;100985.34;;;3.76;100.00
45275;BME280;31019;43.780;25.948;2023-03-31T01:20:17;100978.47;;;3.83;100.00
45275;BME280;31019;43.780;25.948;2023-03-31T01:26:33;100980.97;;;3.41;100.00
45275;BME280;31019;43.780;25.948;2023-03-31T01:29:13;100976.06;;;3.64;100.00
45275;BME280;31019;43.780;25.948;2023-03-31T01:32:00;100964.28;;;3.42;100.00
45275;BME280;31019;43.780;25.948;2023-03-31T01:35:08;100965.56;;;3.20;100.00
45275;BME280;31019;43.780;25.948;2023-03-31T01:41:09;100963.88;;;3.55;100.00
45275;BME280;31019;43.780;25.948;2023-03-31T01:43:43;100953.34;;;3.11;100.00
45275;BME280;31019;43.780;25.948;2023-03-31T01:46:19;100963.06;;;3.62;100.00
45275;BME280;31019;43.780;25.948;2023-03-31T01:48:55;100960.56;;;3.53;100.00
45275;BME280;31019;43.780;25.948;2023-03-31T01:51:31;100956.63;;;3.83;100.00
45275;BME280;31019;43.780;25.948;2023-03-31T01:54:05;100961.59;;;3.86;100.00
45275;BME280;31019;43.780;25.948;2023-03-31T01:56:38;100963.91;;;3.89;100.00
45275;BME280;31019;43.780;25.948;2023-03-31T01:59:10;100959.47;;;3.89;100.00
45275;BME280;31019;43.780;25.948;2023-03-31T02:01:40;100959.47;;;3.89;100.00
45275;BME280;31019;43.780;25.948;2023-03-31T02:04:12;100955.88;;;3.90;100.00
45275;BME280;31019;43.780;25.948;2023-03-31T02:06:45;100952.72;;;3.87;100.00
45275;BME280;31019;43.780;25.948;2023-03-31T02:09:19;100948.94;;;3.81;100.00
45275;BME280;31019;43.780;25.948;2023-03-31T02:11:50;100943.38;;;3.93;100.00
45275;BME280;31019;43.780;25.948;2023-03-31T02:14:23;100950.38;;;4.10;100.00
45275;BME280;31019;43.780;25.948;2023-03-31T02:16:56;100952.53;;;4.15;100.00
45275;BME280;31019;43.780;25.948;2023-03-31T02:19:26;100948.78;;;4.25;100.00
45275;BME280;31019;43.780;25.948;2023-03-31T02:21:53;100940.84;;;4.17;100.00
45275;BME280;31019;43.780;25.948;2023-03-31T02:24:22;100944.34;;;4.26;100.00
45275;BME280;31019;43.780;25.948;2023-03-31T02:26:56;100933.47;;;4.12;100.00
45275;BME280;31019;43.780;25.948;2023-03-31T02:29:26;100941.84;;;4.16;100.00
45275;BME280;31019;43.780;25.948;2023-03-31T02:31:57;100932.19;;;4.25;100.00
45275;BME280;31019;43.780;25.948;2023-03-31T02:34:26;100926.75;;;4.18;100.00
45275;BME280;31019;43.780;25.948;2023-03-31T02:36:53;100924.16;;;4.34;100.00
45275;BME280;31019;43.780;25.948;2023-03-31T02:39:23;100921.56;;;4.43;100.00
45275;BME280;31019;43.780;25.948;2023-03-31T02:41:53;100919.84;;;4.25;100.00
45275;BME280;31019;43.780;25.948;2023-03-31T02:44:20;100918.72;;;4.28;100.00
45275;BME280;31019;43.780;25.948;2023-03-31T02:46:47;100919.97;;;4.07;100.00
45275;BME280;31019;43.780;25.948;2023-03-31T02:49:15;100913.91;;;4.15;100.00
45275;BME280;31019;43.780;25.948;2023-03-31T02:52:07;100923.09;;;4.11;100.00
45275;BME280;31019;43.780;25.948;2023-03-31T02:54:51;100925.50;;;4.47;100.00
45275;BME280;31019;43.780;25.948;2023-03-31T03:00:24;100917.78;;;4.45;100.00
45275;BME280;31019;43.780;25.948;2023-03-31T03:03:06;100925.53;;;4.55;100.00
45275;BME280;31019;43.780;25.948;2023-03-31T03:05:40;100916.13;;;4.44;100.00
45275;BME280;31019;43.780;25.948;2023-03-31T03:08:17;100934.72;;;4.59;100.00
45275;BME280;31019;43.780;25.948;2023-03-31T03:10:57;100933.75;;;4.52;100.00
45275;BME280;31019;43.780;25.948;2023-03-31T03:13:34;100936.81;;;4.31;100.00
45275;BME280;31019;43.780;25.948;2023-03-31T03:16:05;100934.22;;;4.47;100.00
45275;BME280;31019;43.780;25.948;2023-03-31T03:18:38;100940.16;;;4.49;100.00
45275;BME280;31019;43.780;25.948;2023-03-31T03:21:05;100941.47;;;4.45;100.00
45275;BME280;31019;43.780;25.948;2023-03-31T03:23:32;100942.94;;;4.56;100.00
45275;BME280;31019;43.780;25.948;2023-03-31T03:25:58;100937.66;;;4.48;100.00
45275;BME280;31019;43.780;25.948;2023-03-31T03:28:25;100938.69;;;4.55;100.00
45275;BME280;31019;43.780;25.948;2023-03-31T03:30:53;100937.69;;;4.56;100.00
45275;BME280;31019;43.780;25.948;2023-03-31T03:33:21;100933.59;;;4.62;100.00
45275;BME280;31019;43.780;25.948;2023-03-31T03:35:49;100937.03;;;4.46;100.00
45275;BME280;31019;43.780;25.948;2023-03-31T03:38:16;100947.97;;;4.25;100.00
45275;BME280;31019;43.780;25.948;2023-03-31T03:40:42;100949.78;;;4.32;100.00
45275;BME280;31019;43.780;25.948;2023-03-31T03:43:09;100943.44;;;4.59;100.00
45275;BME280;31019;43.780;25.948;2023-03-31T03:45:36;100945.44;;;4.57;100.00
45275;BME280;31019;43.780;25.948;2023-03-31T03:48:05;100952.63;;;4.47;100.00
45275;BME280;31019;43.780;25.948;2023-03-31T03:50:35;100963.69;;;4.59;100.00
45275;BME280;31019;43.780;25.948;2023-03-31T03:53:01;100957.94;;;4.64;100.00
45275;BME280;31019;43.780;25.948;2023-03-31T03:55:28;100951.00;;;4.63;100.00
45275;BME280;31019;43.780;25.948;2023-03-31T03:57:55;100957.88;;;4.47;100.00
45275;BME280;31019;43.780;25.948;2023-03-31T04:00:22;100959.16;;;4.27;100.00
45275;BME280;31019;43.780;25.948;2023-03-31T04:02:48;100963.97;;;4.48;100.00
45275;BME280;31019;43.780;25.948;2023-03-31T04:05:17;100973.13;;;4.35;100.00
45275;BME280;31019;43.780;25.948;2023-03-31T04:07:43;100965.28;;;4.44;100.00
45275;BME280;31019;43.780;25.948;2023-03-31T04:10:10;100972.38;;;4.59;100.00
45275;BME280;31019;43.780;25.948;2023-03-31T04:12:37;100971.75;;;4.66;100.00
45275;BME280;31019;43.780;25.948;2023-03-31T04:15:04;100977.47;;;4.53;100.00
45275;BME280;31019;43.780;25.948;2023-03-31T04:17:32;100983.59;;;4.62;100.00
45275;BME280;31019;43.780;25.948;2023-03-31T04:19:59;100972.88;;;4.55;100.00
45275;BME280;31019;43.780;25.948;2023-03-31T04:22:31;100970.41;;;4.45;100.00
45275;BME280;31019;43.780;25.948;2023-03-31T04:25:01;100964.59;;;4.42;100.00
45275;BME280;31019;43.780;25.948;2023-03-31T04:27:27;100965.09;;;4.37;100.00
45275;BME280;31019;43.780;25.948;2023-03-31T04:29:55;100969.88;;;4.42;100.00
45275;BME280;31019;43.780;25.948;2023-03-31T04:32:23;100973.97;;;4.36;100.00
45275;BME280;31019;43.780;25.948;2023-03-31T04:34:49;100976.94;;;4.41;100.00
45275;BME280;31019;43.780;25.948;2023-03-31T04:37:16;100973.94;;;4.28;100.00
45275;BME280;31019;43.780;25.948;2023-03-31T04:39:44;100974.81;;;4.45;100.00
45275;BME280;31019;43.780;25.948;2023-03-31T04:42:14;100972.66;;;4.40;100.00
45275;BME280;31019;43.780;25.948;2023-03-31T04:44:41;100957.78;;;4.57;100.00
45275;BME280;31019;43.780;25.948;2023-03-31T04:47:08;100971.72;;;4.49;100.00
45275;BME280;31019;43.780;25.948;2023-03-31T04:49:35;100960.72;;;4.62;100.00
45275;BME280;31019;43.780;25.948;2023-03-31T04:52:01;100963.09;;;4.81;100.00
45275;BME280;31019;43.780;25.948;2023-03-31T04:54:28;100965.38;;;4.76;100.00
45275;BME280;31019;43.780;25.948;2023-03-31T04:56:56;100958.66;;;4.90;100.00
45275;BME280;31019;43.780;25.948;2023-03-31T04:59:23;100964.41;;;4.94;100.00
45275;BME280;31019;43.780;25.948;2023-03-31T05:01:49;100967.34;;;4.99;100.00
45275;BME280;31019;43.780;25.948;2023-03-31T05:04:16;100963.22;;;4.80;100.00
45275;BME280;31019;43.780;25.948;2023-03-31T05:06:43;100957.50;;;5.17;100.00
45275;BME280;31019;43.780;25.948;2023-03-31T05:09:10;100951.75;;;5.14;100.00
45275;BME280;31019;43.780;25.948;2023-03-31T05:11:36;100949.91;;;5.14;100.00
45275;BME280;31019;43.780;25.948;2023-03-31T05:14:05;100954.06;;;5.09;100.00
45275;BME280;31019;43.780;25.948;2023-03-31T05:16:31;100947.78;;;5.34;100.00
45275;BME280;31019;43.780;25.948;2023-03-31T05:18:58;100944.16;;;5.35;100.00
45275;BME280;31019;43.780;25.948;2023-03-31T05:21:25;100934.78;;;5.24;100.00
45275;BME280;31019;43.780;25.948;2023-03-31T05:23:55;100929.69;;;5.31;100.00
45275;BME280;31019;43.780;25.948;2023-03-31T05:26:22;100926.22;;;5.31;100.00
45275;BME280;31019;43.780;25.948;2023-03-31T05:28:49;100942.88;;;4.90;100.00
45275;BME280;31019;43.780;25.948;2023-03-31T05:31:17;100941.38;;;5.04;100.00
45275;BME280;31019;43.780;25.948;2023-03-31T05:33:44;100939.56;;;5.29;100.00
45275;BME280;31019;43.780;25.948;2023-03-31T05:36:13;100935.72;;;5.64;100.00
45275;BME280;31019;43.780;25.948;2023-03-31T05:38:40;100936.88;;;5.70;100.00
45275;BME280;31019;43.780;25.948;2023-03-31T05:41:09;100940.66;;;5.67;100.00
45275;BME280;31019;43.780;25.948;2023-03-31T05:43:36;100949.03;;;5.71;100.00
45275;BME280;31019;43.780;25.948;2023-03-31T05:46:03;100937.88;;;5.61;100.00
45275;BME280;31019;43.780;25.948;2023-03-31T05:48:32;100938.69;;;5.69;100.00
45275;BME280;31019;43.780;25.948;2023-03-31T05:51:01;100939.50;;;5.62;100.00
45275;BME280;31019;43.780;25.948;2023-03-31T05:53:28;100936.72;;;5.55;100.00
45275;BME280;31019;43.780;25.948;2023-03-31T05:55:59;100929.44;;;5.82;100.00
45275;BME280;31019;43.780;25.948;2023-03-31T05:58:26;100935.31;;;6.00;100.00
45275;BME280;31019;43.780;25.948;2023-03-31T06:01:00;100934.16;;;6.03;100.00
45275;BME280;31019;43.780;25.948;2023-03-31T06:03:31;100926.03;;;6.21;100.00
45275;BME280;31019;43.780;25.948;2023-03-31T06:05:58;100925.16;;;6.20;100.00
45275;BME280;31019;43.780;25.948;2023-03-31T06:08:26;100927.66;;;6.22;100.00
45275;BME280;31019;43.780;25.948;2023-03-31T06:10:53;100929.56;;;6.36;100.00
45275;BME280;31019;43.780;25.948;2023-03-31T06:13:20;100927.47;;;6.23;100.00
45275;BME280;31019;43.780;25.948;2023-03-31T06:15:52;100928.94;;;6.26;100.00
45275;BME280;31019;43.780;25.948;2023-03-31T06:18:19;100931.91;;;6.31;100.00
45275;BME280;31019;43.780;25.948;2023-03-31T06:20:47;100915.16;;;6.15;100.00
45275;BME280;31019;43.780;25.948;2023-03-31T06:23:14;100907.56;;;6.21;100.00
45275;BME280;31019;43.780;25.948;2023-03-31T06:25:41;100917.78;;;6.15;100.00
45275;BME280;31019;43.780;25.948;2023-03-31T06:28:07;100921.00;;;6.34;100.00
45275;BME280;31019;43.780;25.948;2023-03-31T06:30:34;100913.00;;;6.19;100.00
45275;BME280;31019;43.780;25.948;2023-03-31T06:33:01;100912.50;;;6.47;100.00
45275;BME280;31019;43.780;25.948;2023-03-31T06:35:28;100911.72;;;6.38;100.00
45275;BME280;31019;43.780;25.948;2023-03-31T06:37:56;100916.50;;;6.42;100.00
45275;BME280;31019;43.780;25.948;2023-03-31T06:40:23;100911.31;;;6.57;100.00
45275;BME280;31019;43.780;25.948;2023-03-31T06:42:50;100910.34;;;6.50;100.00
45275;BME280;31019;43.780;25.948;2023-03-31T06:45:17;100916.59;;;6.57;100.00
45275;BME280;31019;43.780;25.948;2023-03-31T06:47:43;100916.94;;;6.54;100.00
45275;BME280;31019;43.780;25.948;2023-03-31T06:50:10;100920.50;;;6.61;100.00
45275;BME280;31019;43.780;25.948;2023-03-31T06:52:37;100915.88;;;6.63;100.00
45275;BME280;31019;43.780;25.948;2023-03-31T06:55:07;100915.47;;;6.75;100.00
45275;BME280;31019;43.780;25.948;2023-03-31T06:57:34;100910.25;;;6.67;100.00
45275;BME280;31019;43.780;25.948;2023-03-31T07:00:01;100898.78;;;6.74;100.00
45275;BME280;31019;43.780;25.948;2023-03-31T07:02:28;100899.00;;;6.73;100.00
45275;BME280;31019;43.780;25.948;2023-03-31T07:04:55;100892.69;;;6.74;100.00
45275;BME280;31019;43.780;25.948;2023-03-31T07:07:22;100888.59;;;6.71;100.00
45275;BME280;31019;43.780;25.948;2023-03-31T07:09:48;100892.66;;;6.82;100.00
45275;BME280;31019;43.780;25.948;2023-03-31T07:12:17;100891.59;;;6.68;100.00
45275;BME280;31019;43.780;25.948;2023-03-31T07:14:44;100883.66;;;6.91;100.00
45275;BME280;31019;43.780;25.948;2023-03-31T07:17:11;100882.94;;;6.97;100.00
45275;BME280;31019;43.780;25.948;2023-03-31T07:19:38;100871.84;;;7.02;100.00
45275;BME280;31019;43.780;25.948;2023-03-31T07:22:06;100873.59;;;7.09;100.00
45275;BME280;31019;43.780;25.948;2023-03-31T07:24:33;100873.59;;;7.09;100.00
45275;BME280;31019;43.780;25.948;2023-03-31T07:27:00;100866.78;;;7.15;100.00
45275;BME280;31019;43.780;25.948;2023-03-31T07:29:28;100871.41;;;7.13;100.00
45275;BME280;31019;43.780;25.948;2023-03-31T07:31:55;100870.91;;;7.18;100.00
45275;BME280;31019;43.780;25.948;2023-03-31T07:34:22;100862.03;;;7.10;100.00
45275;BME280;31019;43.780;25.948;2023-03-31T07:36:48;100861.66;;;7.14;100.00
45275;BME280;31019;43.780;25.948;2023-03-31T07:39:15;100853.97;;;7.27;100.00
45275;BME280;31019;43.780;25.948;2023-03-31T07:41:42;100849.78;;;7.32;100.00
45275;BME280;31019;43.780;25.948;2023-03-31T07:44:09;100842.28;;;7.21;100.00
45275;BME280;31019;43.780;25.948;2023-03-31T07:46:40;100841.66;;;7.34;100.00
45275;BME280;31019;43.780;25.948;2023-03-31T07:49:07;100835.66;;;7.40;100.00
45275;BME280;31019;43.780;25.948;2023-03-31T07:51:34;100833.56;;;7.50;100.00
45275;BME280;31019;43.780;25.948;2023-03-31T07:54:01;100825.88;;;7.70;100.00
45275;BME280;31019;43.780;25.948;2023-03-31T07:56:28;100818.09;;;7.84;100.00
45275;BME280;31019;43.780;25.948;2023-03-31T07:58:55;100808.06;;;7.94;100.00
45275;BME280;31019;43.780;25.948;2023-03-31T08:01:21;100809.53;;;8.18;100.00
45275;BME280;31019;43.780;25.948;2023-03-31T08:03:51;100806.38;;;8.08;100.00
45275;BME280;31019;43.780;25.948;2023-03-31T08:06:19;100813.38;;;8.15;100.00
45275;BME280;31019;43.780;25.948;2023-03-31T08:08:47;100789.91;;;8.27;100.00
45275;BME280;31019;43.780;25.948;2023-03-31T08:11:14;100791.00;;;8.54;100.00
45275;BME280;31019;43.780;25.948;2023-03-31T08:13:41;100787.44;;;8.97;100.00
45275;BME280;31019;43.780;25.948;2023-03-31T08:16:07;100771.78;;;9.36;100.00
45275;BME280;31019;43.780;25.948;2023-03-31T08:18:34;100772.47;;;9.52;100.00
45275;BME280;31019;43.780;25.948;2023-03-31T08:21:02;100762.38;;;9.89;100.00
45275;BME280;31019;43.780;25.948;2023-03-31T08:23:29;100751.69;;;10.30;100.00
45275;BME280;31019;43.780;25.948;2023-03-31T08:26:06;100747.38;;;10.75;100.00
45275;BME280;31019;43.780;25.948;2023-03-31T08:28:33;100735.69;;;10.83;100.00
45275;BME280;31019;43.780;25.948;2023-03-31T08:31:02;100740.41;;;10.94;100.00
45275;BME280;31019;43.780;25.948;2023-03-31T08:33:30;100726.91;;;11.03;100.00
45275;BME280;31019;43.780;25.948;2023-03-31T08:36:02;100730.00;;;10.86;100.00
45275;BME280;31019;43.780;25.948;2023-03-31T08:38:30;100728.38;;;10.78;100.00
45275;BME280;31019;43.780;25.948;2023-03-31T08:41:00;100717.91;;;10.97;100.00
45275;BME280;31019;43.780;25.948;2023-03-31T08:43:30;100712.53;;;11.17;100.00
45275;BME280;31019;43.780;25.948;2023-03-31T08:46:00;100707.81;;;11.19;100.00
45275;BME280;31019;43.780;25.948;2023-03-31T08:48:29;100715.38;;;11.22;100.00
45275;BME280;31019;43.780;25.948;2023-03-31T08:51:02;100704.66;;;11.42;100.00
45275;BME280;31019;43.780;25.948;2023-03-31T08:53:31;100691.97;;;11.44;100.00
45275;BME280;31019;43.780;25.948;2023-03-31T08:56:03;100691.53;;;11.54;100.00
45275;BME280;31019;43.780;25.948;2023-03-31T08:58:35;100676.03;;;11.44;100.00
45275;BME280;31019;43.780;25.948;2023-03-31T09:01:10;100679.31;;;11.78;100.00
45275;BME280;31019;43.780;25.948;2023-03-31T09:03:47;100672.00;;;12.05;100.00
45275;BME280;31019;43.780;25.948;2023-03-31T09:06:22;100672.81;;;12.05;100.00
45275;BME280;31019;43.780;25.948;2023-03-31T09:08:53;100665.13;;;11.90;100.00
45275;BME280;31019;43.780;25.948;2023-03-31T09:11:27;100657.94;;;11.91;100.00
45275;BME280;31019;43.780;25.948;2023-03-31T09:17:01;100650.56;;;12.18;100.00
45275;BME280;31019;43.780;25.948;2023-03-31T09:19:37;100650.69;;;12.30;100.00
45275;BME280;31019;43.780;25.948;2023-03-31T09:22:10;100657.47;;;12.51;100.00
45275;BME280;31019;43.780;25.948;2023-03-31T09:24:46;100649.38;;;13.31;100.00
45275;BME280;31019;43.780;25.948;2023-03-31T09:27:15;100649.91;;;13.03;100.00
45275;BME280;31019;43.780;25.948;2023-03-31T09:29:46;100632.53;;;12.82;100.00
45275;BME280;31019;43.780;25.948;2023-03-31T09:32:15;100630.22;;;12.67;100.00
45275;BME280;31019;43.780;25.948;2023-03-31T09:34:44;100630.25;;;13.64;100.00
45275;BME280;31019;43.780;25.948;2023-03-31T09:37:13;100624.16;;;13.99;100.00
45275;BME280;31019;43.780;25.948;2023-03-31T09:39:40;100613.59;;;14.16;100.00
45275;BME280;31019;43.780;25.948;2023-03-31T09:42:09;100609.97;;;15.21;100.00
45275;BME280;31019;43.780;25.948;2023-03-31T09:44:38;100604.53;;;14.64;100.00
45275;BME280;31019;43.780;25.948;2023-03-31T09:47:12;100601.66;;;14.18;100.00
45275;BME280;31019;43.780;25.948;2023-03-31T09:49:44;100597.34;;;14.64;100.00
45275;BME280;31019;43.780;25.948;2023-03-31T09:52:18;100598.97;;;14.65;100.00
45275;BME280;31019;43.780;25.948;2023-03-31T09:54:49;100595.47;;;13.83;100.00
45275;BME280;31019;43.780;25.948;2023-03-31T09:57:23;100590.16;;;14.06;100.00
45275;BME280;31019;43.780;25.948;2023-03-31T09:59:51;100597.34;;;14.41;100.00
45275;BME280;31019;43.780;25.948;2023-03-31T10:02:34;100590.78;;;15.41;100.00
45275;BME280;31019;43.780;25.948;2023-03-31T10:05:03;100589.78;;;15.59;100.00
45275;BME280;31019;43.780;25.948;2023-03-31T10:07:33;100587.47;;;14.41;100.00
45275;BME280;31019;43.780;25.948;2023-03-31T10:10:01;100591.22;;;15.67;100.00
45275;BME280;31019;43.780;25.948;2023-03-31T10:12:28;100580.94;;;14.73;100.00
45275;BME280;31019;43.780;25.948;2023-03-31T10:15:13;100577.75;;;14.87;100.00
45275;BME280;31019;43.780;25.948;2023-03-31T10:17:43;100566.91;;;14.65;100.00
45275;BME280;31019;43.780;25.948;2023-03-31T10:20:30;100585.84;;;14.40;100.00
45275;BME280;31019;43.780;25.948;2023-03-31T10:23:03;100579.84;;;13.44;100.00
45275;BME280;31019;43.780;25.948;2023-03-31T10:25:32;100581.91;;;13.12;100.00
45275;BME280;31019;43.780;25.948;2023-03-31T10:28:01;100583.50;;;13.01;100.00
45275;BME280;31019;43.780;25.948;2023-03-31T10:30:33;100584.19;;;12.78;100.00
45275;BME280;31019;43.780;25.948;2023-03-31T10:33:04;100572.88;;;13.43;100.00
45275;BME280;31019;43.780;25.948;2023-03-31T10:35:34;100571.88;;;12.96;100.00
45275;BME280;31019;43.780;25.948;2023-03-31T10:38:05;100571.19;;;15.07;100.00
45275;BME280;31019;43.780;25.948;2023-03-31T10:40:34;100554.31;;;14.78;100.00
45275;BME280;31019;43.780;25.948;2023-03-31T10:43:07;100559.44;;;15.08;100.00
45275;BME280;31019;43.780;25.948;2023-03-31T10:45:36;100548.34;;;14.87;100.00
45275;BME280;31019;43.780;25.948;2023-03-31T10:48:05;100550.50;;;15.48;100.00
45275;BME280;31019;43.780;25.948;2023-03-31T10:50:34;100536.31;;;15.47;100.00
45275;BME280;31019;43.780;25.948;2023-03-31T10:53:05;100538.94;;;15.30;100.00
45275;BME280;31019;43.780;25.948;2023-03-31T10:55:40;100536.09;;;14.92;100.00
45275;BME280;31019;43.780;25.948;2023-03-31T10:58:22;100524.94;;;15.23;100.00
45275;BME280;31019;43.780;25.948;2023-03-31T11:01:04;100525.25;;;15.10;100.00
45275;BME280;31019;43.780;25.948;2023-03-31T11:04:00;100499.63;;;14.57;100.00
45275;BME280;31019;43.780;25.948;2023-03-31T11:06:42;100495.75;;;15.89;100.00
45275;BME280;31019;43.780;25.948;2023-03-31T11:09:23;100494.06;;;16.44;100.00
45275;BME280;31019;43.780;25.948;2023-03-31T11:11:59;100494.16;;;16.54;100.00
45275;BME280;31019;43.780;25.948;2023-03-31T11:14:42;100482.31;;;16.50;100.00
45275;BME280;31019;43.780;25.948;2023-03-31T11:17:19;100483.56;;;16.64;100.00
45275;BME280;31019;43.780;25.948;2023-03-31T11:19:56;100475.72;;;16.14;100.00
45275;BME280;31019;43.780;25.948;2023-03-31T11:22:30;100481.69;;;14.98;100.00
45275;BME280;31019;43.780;25.948;2023-03-31T11:25:12;100474.00;;;15.52;100.00
45275;BME280;31019;43.780;25.948;2023-03-31T11:28:18;100473.53;;;16.33;100.00
45275;BME280;31019;43.780;25.948;2023-03-31T11:30:51;100460.47;;;15.58;100.00
45275;BME280;31019;43.780;25.948;2023-03-31T11:33:51;100452.34;;;16.09;100.00
45275;BME280;31019;43.780;25.948;2023-03-31T11:36:30;100471.84;;;14.58;100.00
45275;BME280;31019;43.780;25.948;2023-03-31T11:39:21;100467.31;;;14.87;100.00
45275;BME280;31019;43.780;25.948;2023-03-31T11:41:56;100467.31;;;13.83;100.00
45275;BME280;31019;43.780;25.948;2023-03-31T11:44:28;100458.59;;;15.08;100.00
45275;BME280;31019;43.780;25.948;2023-03-31T11:47:00;100456.44;;;12.95;100.00
45275;BME280;31019;43.780;25.948;2023-03-31T11:49:28;100471.16;;;14.10;100.00
45275;BME280;31019;43.780;25.948;2023-03-31T11:51:58;100474.81;;;14.33;100.00
45275;BME280;31019;43.780;25.948;2023-03-31T11:54:30;100462.97;;;14.98;100.00
45275;BME280;31019;43.780;25.948;2023-03-31T11:57:01;100459.97;;;15.11;100.00
45275;BME280;31019;43.780;25.948;2023-03-31T11:59:31;100450.75;;;16.57;100.00
45275;BME280;31019;43.780;25.948;2023-03-31T12:02:03;100456.69;;;14.75;100.00
45275;BME280;31019;43.780;25.948;2023-03-31T12:04:37;100455.59;;;15.22;100.00
45275;BME280;31019;43.780;25.948;2023-03-31T12:07:14;100443.44;;;15.48;100.00
45275;BME280;31019;43.780;25.948;2023-03-31T12:09:52;100454.78;;;15.21;100.00
45275;BME280;31019;43.780;25.948;2023-03-31T12:12:23;100455.41;;;14.78;100.00
45275;BME280;31019;43.780;25.948;2023-03-31T12:15:05;100453.28;;;15.98;100.00
45275;BME280;31019;43.780;25.948;2023-03-31T12:17:34;100433.63;;;15.70;100.00
45275;BME280;31019;43.780;25.948;2023-03-31T12:20:03;100439.03;;;14.74;100.00
45275;BME280;31019;43.780;25.948;2023-03-31T12:22:35;100425.84;;;17.53;100.00
45275;BME280;31019;43.780;25.948;2023-03-31T12:25:04;100417.78;;;16.57;100.00
45275;BME280;31019;43.780;25.948;2023-03-31T12:27:36;100436.09;;;18.04;100.00
45275;BME280;31019;43.780;25.948;2023-03-31T12:30:09;100431.75;;;16.10;100.00
45275;BME280;31019;43.780;25.948;2023-03-31T12:32:40;100430.47;;;16.39;100.00
45275;BME280;31019;43.780;25.948;2023-03-31T12:35:16;100423.22;;;17.21;100.00
45275;BME280;31019;43.780;25.948;2023-03-31T12:38:14;100422.84;;;15.48;100.00
45275;BME280;31019;43.780;25.948;2023-03-31T12:40:55;100425.34;;;15.72;100.00
45275;BME280;31019;43.780;25.948;2023-03-31T12:46:42;100415.31;;;17.09;100.00
45275;BME280;31019;43.780;25.948;2023-03-31T12:49:38;100409.88;;;16.72;100.00
45275;BME280;31019;43.780;25.948;2023-03-31T12:52:16;100410.66;;;16.94;100.00
45275;BME280;31019;43.780;25.948;2023-03-31T12:55:00;100404.56;;;16.01;100.00
45275;BME280;31019;43.780;25.948;2023-03-31T12:57:34;100389.81;;;16.47;100.00
45275;BME280;31019;43.780;25.948;2023-03-31T13:00:25;100375.16;;;16.55;100.00
45275;BME280;31019;43.780;25.948;2023-03-31T13:05:54;100363.72;;;17.34;100.00
45275;BME280;31019;43.780;25.948;2023-03-31T13:08:52;100363.72;;;18.86;100.00
45275;BME280;31019;43.780;25.948;2023-03-31T13:11:20;100359.13;;;18.81;100.00
45275;BME280;31019;43.780;25.948;2023-03-31T13:13:58;100367.34;;;18.23;100.00